createdAt,value
2017-05-19T00:00:11.389Z,73.14
2017-05-19T00:01:11.423Z,73.43
2017-05-19T00:02:26.357Z,73.62
2017-05-19T00:03:11.766Z,73.91
2017-05-19T00:04:11.500Z,74.29
2017-05-19T00:05:11.815Z,74.01
2017-05-19T00:06:11.843Z,74.01
2017-05-19T00:07:11.866Z,74.39
2017-05-19T00:08:11.589Z,74.77
2017-05-19T00:09:11.931Z,74.54
2017-05-19T00:10:11.644Z,74.96
2017-05-19T00:11:11.982Z,74.77
2017-05-19T00:12:11.996Z,74.83
2017-05-19T00:13:12.032Z,75.98
2017-05-19T00:14:12.051Z,75.21
2017-05-19T00:15:12.074Z,75.6
2017-05-19T00:16:12.102Z,75.4
2017-05-19T00:17:12.123Z,75.4
2017-05-19T00:18:26.768Z,75.7
2017-05-19T00:19:11.876Z,75.4
2017-05-19T00:20:12.212Z,75.7
2017-05-19T00:21:11.930Z,76.46
2017-05-19T00:22:12.264Z,75.7
2017-05-19T00:24:12.302Z,76.17
2017-05-19T00:25:12.329Z,75.7
2017-05-19T00:26:12.357Z,75.98
2017-05-19T00:27:12.084Z,75.79
2017-05-19T00:28:12.404Z,76.07
2017-05-19T00:29:12.437Z,76.07
2017-05-19T00:31:12.492Z,76.56
2017-05-19T00:32:12.507Z,76.94
2017-05-19T00:33:12.535Z,76.65
2017-05-19T00:34:27.174Z,76.84
2017-05-19T00:35:12.593Z,76.84
2017-05-19T00:36:12.620Z,76.94
2017-05-19T00:37:12.340Z,76.75
2017-05-19T00:38:12.664Z,77.51
2017-05-19T00:39:12.691Z,77.61
2017-05-19T00:41:12.744Z,76.94
2017-05-19T00:42:12.775Z,77.04
2017-05-19T00:43:12.483Z,76.71
2017-05-19T00:44:12.828Z,77.04
2017-05-19T00:46:12.862Z,77.71
2017-05-19T00:47:12.891Z,77.58
2017-05-19T00:48:12.621Z,77.33
2017-05-19T00:49:27.560Z,77.95
2017-05-19T00:50:12.977Z,78.25
2017-05-19T00:51:13.001Z,77.29
2017-05-19T00:52:13.028Z,77.95
2017-05-19T00:54:13.079Z,77.76
2017-05-19T00:55:13.104Z,78.15
2017-05-19T00:56:13.124Z,78.05
2017-05-19T00:57:13.154Z,78.25
2017-05-19T00:58:13.168Z,77.86
2017-05-19T00:59:13.205Z,78.34
2017-05-19T01:02:13.267Z,78.63
2017-05-19T01:03:13.302Z,78.53
2017-05-19T01:04:13.319Z,78.25
2017-05-19T01:05:13.353Z,78.72
2017-05-19T01:06:13.371Z,78.63
2017-05-19T01:08:13.424Z,78.63
2017-05-19T01:10:13.471Z,78.72
2017-05-19T01:11:13.194Z,78.72
2017-05-19T01:12:13.230Z,79.39
2017-05-19T01:13:13.547Z,78.92
2017-05-19T01:14:13.587Z,79.68
2017-05-19T01:15:13.599Z,79.64
2017-05-19T01:16:13.634Z,79.78
2017-05-19T01:17:13.660Z,80.16
2017-05-19T01:18:13.673Z,80.51
2017-05-19T01:19:13.404Z,80.32
2017-05-19T01:21:28.367Z,80.32
2017-05-19T01:22:13.475Z,80.12
2017-05-19T01:23:13.818Z,80.7
2017-05-19T01:24:13.838Z,80.55
2017-05-19T01:25:13.849Z,81.08
2017-05-19T01:26:13.884Z,80.89
2017-05-19T01:27:13.899Z,81.18
2017-05-19T01:28:13.934Z,81.08
2017-05-19T01:29:13.957Z,81.37
2017-05-19T01:30:13.979Z,81.85
2017-05-19T01:31:14.014Z,80.99
2017-05-19T01:32:14.035Z,80.99
2017-05-19T01:33:14.063Z,80.22
2017-05-19T01:35:14.111Z,80.6
2017-05-19T01:36:14.128Z,80.99
2017-05-19T01:37:28.772Z,81.66
2017-05-19T01:38:14.177Z,80.89
2017-05-19T01:39:14.205Z,81.08
2017-05-19T01:40:14.227Z,81.56
2017-05-19T01:41:14.258Z,81.37
2017-05-19T01:42:14.287Z,81.75
2017-05-19T01:43:14.309Z,81.46
2017-05-19T01:44:14.033Z,81.62
2017-05-19T01:45:14.355Z,82.04
2017-05-19T01:46:14.080Z,82.19
2017-05-19T01:47:14.405Z,81.9
2017-05-19T01:48:14.437Z,82
2017-05-19T01:49:14.459Z,82
2017-05-19T01:50:14.488Z,82.19
2017-05-19T01:51:14.197Z,82.29
2017-05-19T01:52:14.531Z,82.19
2017-05-19T01:53:29.169Z,81.9
2017-05-19T01:54:14.580Z,82.48
2017-05-19T01:55:14.606Z,83.15
2017-05-19T01:56:14.332Z,82.67
2017-05-19T01:57:14.670Z,82.76
2017-05-19T01:58:14.374Z,83.05
2017-05-19T01:59:14.710Z,81.9
2017-05-19T02:00:14.730Z,82
2017-05-19T02:01:14.764Z,82.19
2017-05-19T02:02:14.781Z,81.9
2017-05-19T02:03:14.815Z,82
2017-05-19T02:04:14.826Z,81.9
2017-05-19T02:06:14.891Z,81.43
2017-05-19T02:07:14.911Z,81.52
2017-05-19T02:08:14.928Z,81.81
2017-05-19T02:09:29.570Z,81.81
2017-05-19T02:10:14.984Z,81.71
2017-05-19T02:11:15.002Z,81.81
2017-05-19T02:12:15.027Z,81.43
2017-05-19T02:13:15.054Z,81.71
2017-05-19T02:14:15.079Z,82
2017-05-19T02:15:15.103Z,82.09
2017-05-19T02:16:15.127Z,81.52
2017-05-19T02:17:15.155Z,81.52
2017-05-19T02:18:15.182Z,81.62
2017-05-19T02:19:14.906Z,82.19
2017-05-19T02:20:15.241Z,81.81
2017-05-19T02:22:15.289Z,83.34
2017-05-19T02:23:15.007Z,83.82
2017-05-19T02:24:29.948Z,83.63
2017-05-19T02:26:15.079Z,84.11
2017-05-19T02:27:15.102Z,84.78
2017-05-19T02:28:15.449Z,84.3
2017-05-19T02:29:15.467Z,84.01
2017-05-19T02:30:15.175Z,84.2
2017-05-19T02:31:15.199Z,84.58
2017-05-19T02:32:15.234Z,84.49
2017-05-19T02:33:15.256Z,84.58
2017-05-19T02:34:15.280Z,84.39
2017-05-19T02:35:15.611Z,84.2
2017-05-19T02:37:15.659Z,85.21
2017-05-19T02:38:15.680Z,85.64
2017-05-19T02:39:15.704Z,85.69
2017-05-19T02:40:15.742Z,85.79
2017-05-19T02:41:15.768Z,85.88
2017-05-19T02:42:15.789Z,86.27
2017-05-19T02:44:15.528Z,86.27
2017-05-19T02:46:15.888Z,86.46
2017-05-19T02:47:15.604Z,85.69
2017-05-19T02:48:15.939Z,86.27
2017-05-19T02:49:15.950Z,86.46
2017-05-19T02:50:15.976Z,85.31
2017-05-19T02:52:16.034Z,85.69
2017-05-19T02:53:16.050Z,85.98
2017-05-19T02:54:16.088Z,85.6
2017-05-19T02:55:16.109Z,85.79
2017-05-19T02:56:30.741Z,85.69
2017-05-19T02:57:16.152Z,85.41
2017-05-19T02:58:15.881Z,85.5
2017-05-19T02:59:16.208Z,85.31
2017-05-19T03:00:15.928Z,85.98
2017-05-19T03:01:16.260Z,85.69
2017-05-19T03:02:15.979Z,85.69
2017-05-19T03:04:16.028Z,85.88
2017-05-19T03:05:16.347Z,85.35
2017-05-19T03:06:16.380Z,85.31
2017-05-19T03:07:16.103Z,85.31
2017-05-19T03:08:16.125Z,84.68
2017-05-19T03:09:16.455Z,84.88
2017-05-19T03:10:16.170Z,84.2
2017-05-19T03:11:16.496Z,84.3
2017-05-19T03:12:31.141Z,84.39
2017-05-19T03:13:16.251Z,84.58
2017-05-19T03:14:16.583Z,85.06
2017-05-19T03:15:16.608Z,85.06
2017-05-19T03:16:16.631Z,85.06
2017-05-19T03:17:16.349Z,84.88
2017-05-19T03:18:16.371Z,84.2
2017-05-19T03:19:16.396Z,85.06
2017-05-19T03:20:16.420Z,84.2
2017-05-19T03:21:16.754Z,84.49
2017-05-19T03:22:16.464Z,84.49
2017-05-19T03:23:16.493Z,84.78
2017-05-19T03:24:16.817Z,85.06
2017-05-19T03:25:16.846Z,84.88
2017-05-19T03:26:16.570Z,84.39
2017-05-19T03:27:16.900Z,84.2
2017-05-19T03:28:31.536Z,85.35
2017-05-19T03:29:16.644Z,85.54
2017-05-19T03:30:16.975Z,85.16
2017-05-19T03:31:16.999Z,85.25
2017-05-19T03:32:16.718Z,85.35
2017-05-19T03:33:17.046Z,85.16
2017-05-19T03:34:17.078Z,85.54
2017-05-19T03:35:16.794Z,85.54
2017-05-19T03:36:16.821Z,85.25
2017-05-19T03:37:17.146Z,84.97
2017-05-19T03:39:16.887Z,84.97
2017-05-19T03:40:17.215Z,85.25
2017-05-19T03:41:17.247Z,85.06
2017-05-19T03:42:17.274Z,84.88
2017-05-19T03:43:16.985Z,84.97
2017-05-19T03:44:31.930Z,84.97
2017-05-19T03:45:17.340Z,85.35
2017-05-19T03:46:17.065Z,84.58
2017-05-19T03:47:17.386Z,84.49
2017-05-19T03:48:17.414Z,84.39
2017-05-19T03:49:17.438Z,84.39
2017-05-19T03:50:17.479Z,84.11
2017-05-19T03:51:17.190Z,83.92
2017-05-19T03:52:17.523Z,83.82
2017-05-19T03:53:17.546Z,83.53
2017-05-19T03:54:17.571Z,83.44
2017-05-19T03:55:17.595Z,83.76
2017-05-19T03:56:17.613Z,83.67
2017-05-19T03:57:17.340Z,83.38
2017-05-19T03:58:17.671Z,83.09
2017-05-19T03:59:32.306Z,82.81
2017-05-19T04:00:17.717Z,82.42
2017-05-19T04:01:17.439Z,82.42
2017-05-19T04:02:17.773Z,81.89
2017-05-19T04:03:17.790Z,81.98
2017-05-19T04:04:17.811Z,81.89
2017-05-19T04:05:17.834Z,81.41
2017-05-19T04:06:17.865Z,81.31
2017-05-19T04:07:17.897Z,81.7
2017-05-19T04:08:17.923Z,81.7
2017-05-19T04:09:17.936Z,81.41
2017-05-19T04:10:18.269Z,81.7
2017-05-19T04:11:17.992Z,81.89
2017-05-19T04:12:18.019Z,81.7
2017-05-19T04:13:18.034Z,81.7
2017-05-19T04:14:18.060Z,81.41
2017-05-19T04:15:18.084Z,80.83
2017-05-19T04:16:18.121Z,80.93
2017-05-19T04:17:18.135Z,81.12
2017-05-19T04:19:18.186Z,80.64
2017-05-19T04:20:18.213Z,80.26
2017-05-19T04:21:18.237Z,80.49
2017-05-19T04:22:18.258Z,80.11
2017-05-19T04:23:18.290Z,80.2
2017-05-19T04:24:18.312Z,79.72
2017-05-19T04:25:18.343Z,80.01
2017-05-19T04:26:18.372Z,79.82
2017-05-19T04:27:18.396Z,79.53
2017-05-19T04:28:18.412Z,80.01
2017-05-19T04:29:18.437Z,79.82
2017-05-19T04:30:18.462Z,79.34
2017-05-19T04:31:33.102Z,79.14
2017-05-19T04:32:18.509Z,79.14
2017-05-19T04:33:18.547Z,78.47
2017-05-19T04:34:18.563Z,78.57
2017-05-19T04:35:18.596Z,79.14
2017-05-19T04:36:18.614Z,79.14
2017-05-19T04:37:18.637Z,78.8
2017-05-19T04:38:18.660Z,78.61
2017-05-19T04:39:18.701Z,78.61
2017-05-19T04:40:18.719Z,78.52
2017-05-19T04:41:18.745Z,77.94
2017-05-19T04:42:18.770Z,75.96
2017-05-19T04:43:18.791Z,73.92
2017-05-19T04:44:18.825Z,70.72
2017-05-19T04:45:18.848Z,68.87
2017-05-19T04:46:18.875Z,66.39
2017-05-19T04:47:33.508Z,62.7
2017-05-19T04:48:18.926Z,61.7
2017-05-19T04:49:18.945Z,60.09
2017-05-19T04:50:18.980Z,58.18
2017-05-19T04:51:19.003Z,57.37
2017-05-19T04:52:19.039Z,55.46
2017-05-19T04:53:19.063Z,53.45
2017-05-19T04:54:19.085Z,52.15
2017-05-19T04:55:19.124Z,51.67
2017-05-19T04:56:19.152Z,50.79
2017-05-19T04:57:19.184Z,50.34
2017-05-19T04:58:19.211Z,49.1
2017-05-19T04:59:19.544Z,48.05
2017-05-19T05:00:19.262Z,48.73
2017-05-19T05:01:19.292Z,47.2
2017-05-19T05:02:19.323Z,46.55
2017-05-19T05:03:33.971Z,44.45
2017-05-19T05:04:19.697Z,43.4
2017-05-19T05:06:19.452Z,43.5
2017-05-19T05:07:19.481Z,43.7
2017-05-19T05:08:19.526Z,42.65
2017-05-19T05:09:19.556Z,41.99
2017-05-19T05:10:19.578Z,41.5
2017-05-19T05:11:19.622Z,42.18
2017-05-19T05:13:19.677Z,39.33
2017-05-19T05:15:19.755Z,39.59
2017-05-19T05:16:19.786Z,39.02
2017-05-19T05:17:19.824Z,39.51
2017-05-19T05:18:19.844Z,39.02
2017-05-19T05:19:34.499Z,38.84
2017-05-19T05:20:19.972Z,38.75
2017-05-19T05:21:19.951Z,38.57
2017-05-19T05:22:19.998Z,37.02
2017-05-19T05:23:20.026Z,37.22
2017-05-19T05:24:20.070Z,37.54
2017-05-19T05:25:20.094Z,35.99
2017-05-19T05:26:20.135Z,35.52
2017-05-19T05:27:20.175Z,35.83
2017-05-19T05:28:20.210Z,35.14
2017-05-19T05:29:20.232Z,35.16
2017-05-19T05:30:20.268Z,33.89
2017-05-19T05:31:20.308Z,35.44
2017-05-19T05:32:20.338Z,35.6
2017-05-19T05:33:20.386Z,36.46
2017-05-19T05:34:35.029Z,35.87
2017-05-19T05:35:20.445Z,35.21
2017-05-19T05:36:20.480Z,35.5
2017-05-19T05:37:20.524Z,36.65
2017-05-19T05:39:20.603Z,35.61
2017-05-19T05:41:20.676Z,34.93
2017-05-19T05:43:20.749Z,35.01
2017-05-19T05:44:20.850Z,35.58
2017-05-19T05:45:20.816Z,36.34
2017-05-19T05:47:20.882Z,35.42
2017-05-19T05:48:20.922Z,33.87
2017-05-19T05:49:20.957Z,33.97
2017-05-19T05:50:21.002Z,33.5
2017-05-19T05:51:21.034Z,32.53
2017-05-19T05:52:21.077Z,33.23
2017-05-19T05:53:21.105Z,32.53
2017-05-19T05:54:21.137Z,32.73
2017-05-19T05:55:21.176Z,34.16
2017-05-19T05:56:21.224Z,34.44
2017-05-19T05:57:21.257Z,34.81
2017-05-19T05:58:21.289Z,35.01
2017-05-19T05:59:21.021Z,34.93
2017-05-19T06:00:21.063Z,33.85
2017-05-19T06:01:21.095Z,34.44
2017-05-19T06:02:21.182Z,34.14
2017-05-19T06:03:21.178Z,34.99
2017-05-19T06:04:21.207Z,34.03
2017-05-19T06:05:21.560Z,34.91
2017-05-19T06:06:36.203Z,35.48
2017-05-19T06:07:21.636Z,35.48
2017-05-19T06:08:21.359Z,34.44
2017-05-19T06:09:21.402Z,34.54
2017-05-19T06:10:21.733Z,34.05
2017-05-19T06:11:21.773Z,33.28
2017-05-19T06:12:21.507Z,33.97
2017-05-19T06:13:21.861Z,33
2017-05-19T06:14:21.894Z,34.36
2017-05-19T06:15:21.934Z,34.64
2017-05-19T06:16:21.658Z,33.28
2017-05-19T06:17:21.728Z,33.48
2017-05-19T06:19:22.079Z,33.29
2017-05-19T06:20:22.107Z,32.9
2017-05-19T06:21:21.848Z,32.64
2017-05-19T06:22:36.804Z,31.86
2017-05-19T06:23:22.234Z,31.01
2017-05-19T06:24:22.261Z,31.47
2017-05-19T06:25:22.301Z,30.62
2017-05-19T06:26:22.344Z,30.43
2017-05-19T06:27:22.381Z,31.68
2017-05-19T06:28:22.411Z,31.68
2017-05-19T06:29:22.471Z,31.2
2017-05-19T06:31:22.527Z,30.36
2017-05-19T06:32:22.578Z,29.49
2017-05-19T06:33:22.614Z,28.83
2017-05-19T06:35:22.687Z,28.17
2017-05-19T06:36:22.729Z,28.26
2017-05-19T06:37:22.771Z,28.72
2017-05-19T06:38:37.415Z,29.49
2017-05-19T06:39:22.845Z,29.66
2017-05-19T06:40:22.873Z,29.37
2017-05-19T06:41:22.917Z,29.19
2017-05-19T06:42:22.647Z,29.19
2017-05-19T06:43:22.989Z,29.57
2017-05-19T06:45:23.078Z,30.07
2017-05-19T06:46:23.161Z,29.68
2017-05-19T06:47:23.147Z,29.87
2017-05-19T06:48:23.192Z,28.59
2017-05-19T06:49:23.231Z,28.61
2017-05-19T06:50:23.261Z,29.41
2017-05-19T06:51:23.305Z,28.83
2017-05-19T06:52:23.343Z,27.57
2017-05-19T06:53:23.388Z,27.17
2017-05-19T06:54:38.041Z,26.77
2017-05-19T06:55:23.471Z,28.05
2017-05-19T06:56:23.498Z,28.92
2017-05-19T06:57:23.536Z,28.51
2017-05-19T06:58:23.589Z,28.81
2017-05-19T06:59:23.618Z,28.7
2017-05-19T07:00:23.653Z,30.07
2017-05-19T07:01:23.709Z,30.24
2017-05-19T07:02:23.740Z,30.81
2017-05-19T07:03:23.776Z,29.63
2017-05-19T07:04:23.828Z,30.33
2017-05-19T07:05:23.858Z,29.94
2017-05-19T07:06:23.898Z,29.75
2017-05-19T07:07:23.932Z,30.25
2017-05-19T07:08:23.980Z,29.28
2017-05-19T07:09:38.631Z,28.31
2017-05-19T07:10:24.061Z,27.66
2017-05-19T07:11:24.141Z,27.48
2017-05-19T07:12:24.126Z,27.97
2017-05-19T07:14:24.207Z,28.23
2017-05-19T07:15:24.244Z,27.66
2017-05-19T07:16:24.285Z,27.17
2017-05-19T07:17:24.334Z,26.01
2017-05-19T07:18:24.365Z,27.3
2017-05-19T07:19:24.416Z,26.61
2017-05-19T07:20:24.458Z,26.64
2017-05-19T07:23:24.574Z,26.21
2017-05-19T07:24:24.611Z,26.82
2017-05-19T07:25:24.649Z,26.92
2017-05-19T07:26:24.680Z,26.62
2017-05-19T07:27:24.720Z,25.74
2017-05-19T07:28:24.774Z,26.06
2017-05-19T07:29:24.808Z,25.48
2017-05-19T07:30:24.852Z,26.25
2017-05-19T07:31:24.881Z,27.4
2017-05-19T07:32:24.946Z,27.56
2017-05-19T07:33:24.967Z,26.88
2017-05-19T07:35:25.041Z,27.69
2017-05-19T07:36:24.783Z,26.81
2017-05-19T07:38:25.170Z,27.11
2017-05-19T07:39:25.208Z,27.2
2017-05-19T07:40:25.248Z,26.71
2017-05-19T07:41:39.900Z,26.71
2017-05-19T07:42:25.020Z,26.71
2017-05-19T07:43:25.063Z,28.66
2017-05-19T07:44:25.091Z,27.67
2017-05-19T07:45:25.440Z,27.28
2017-05-19T07:46:25.484Z,27.97
2017-05-19T07:47:25.517Z,27.78
2017-05-19T07:48:25.559Z,26.81
2017-05-19T07:49:25.604Z,27.41
2017-05-19T07:50:25.646Z,26.71
2017-05-19T07:51:25.681Z,27.41
2017-05-19T07:52:25.714Z,26.9
2017-05-19T07:53:25.755Z,26.72
2017-05-19T07:54:25.798Z,26.51
2017-05-19T07:55:25.836Z,27.69
2017-05-19T07:56:25.873Z,27.39
2017-05-19T07:57:40.536Z,28.05
2017-05-19T07:58:25.952Z,28.52
2017-05-19T07:59:26.000Z,27.34
2017-05-19T08:00:26.033Z,28.24
2017-05-19T08:01:26.071Z,26.78
2017-05-19T08:02:25.806Z,26.81
2017-05-19T08:03:26.150Z,26.62
2017-05-19T08:04:26.200Z,26.79
2017-05-19T08:05:25.934Z,27.96
2017-05-19T08:06:26.282Z,27.85
2017-05-19T08:09:26.396Z,28.54
2017-05-19T08:10:26.428Z,28.65
2017-05-19T08:11:26.476Z,28.45
2017-05-19T08:12:26.513Z,28.85
2017-05-19T08:13:41.168Z,28.08
2017-05-19T08:14:26.590Z,27.2
2017-05-19T08:15:26.628Z,26.73
2017-05-19T08:16:26.670Z,26.72
2017-05-19T08:18:26.744Z,27.68
2017-05-19T08:19:26.486Z,28.06
2017-05-19T08:20:26.826Z,28.74
2017-05-19T08:21:26.865Z,28.33
2017-05-19T08:22:26.905Z,29.21
2017-05-19T08:23:26.940Z,28.44
2017-05-19T08:24:26.974Z,28.17
2017-05-19T08:25:27.022Z,27.48
2017-05-19T08:26:26.756Z,27.89
2017-05-19T08:27:27.095Z,28.56
2017-05-19T08:28:27.142Z,28.06
2017-05-19T08:29:41.790Z,28.08
2017-05-19T08:30:26.907Z,27.48
2017-05-19T08:32:27.323Z,27.87
2017-05-19T08:33:27.326Z,27.97
2017-05-19T08:34:27.069Z,27.59
2017-05-19T08:35:27.100Z,28.27
2017-05-19T08:36:27.144Z,27.96
2017-05-19T08:37:27.483Z,28.65
2017-05-19T08:38:27.521Z,27.68
2017-05-19T08:39:27.263Z,26.81
2017-05-19T08:42:27.373Z,27.78
2017-05-19T08:43:27.417Z,28.85
2017-05-19T08:44:42.376Z,28.45
2017-05-19T08:45:27.791Z,28.17
2017-05-19T08:46:27.526Z,28.66
2017-05-19T08:47:27.866Z,28.56
2017-05-19T08:48:27.606Z,28.56
2017-05-19T08:51:27.727Z,28.37
2017-05-19T08:52:28.064Z,27.68
2017-05-19T08:53:27.805Z,27.28
2017-05-19T08:54:28.147Z,27.89
2017-05-19T08:56:28.210Z,27.58
2017-05-19T08:57:28.318Z,27.47
2017-05-19T08:58:28.289Z,27.44
2017-05-19T08:59:28.334Z,27.54
2017-05-19T09:00:28.376Z,26.65
2017-05-19T09:01:28.107Z,26.95
2017-05-19T09:02:28.438Z,26.95
2017-05-19T09:03:28.182Z,26.28
2017-05-19T09:04:28.515Z,26.47
2017-05-19T09:05:28.563Z,26.29
2017-05-19T09:06:28.601Z,27.17
2017-05-19T09:07:28.627Z,26.19
2017-05-19T09:08:28.678Z,26.67
2017-05-19T09:09:28.719Z,27.64
2017-05-19T09:10:28.741Z,27.25
2017-05-19T09:13:28.551Z,27.23
2017-05-19T09:14:28.590Z,27.44
2017-05-19T09:15:28.933Z,27.82
2017-05-19T09:16:43.586Z,28.99
2017-05-19T09:17:29.006Z,29.35
2017-05-19T09:18:29.049Z,30.3
2017-05-19T09:19:29.090Z,29.34
2017-05-19T09:20:29.112Z,28.78
2017-05-19T09:21:28.849Z,28.51
2017-05-19T09:22:29.195Z,28.02
2017-05-19T09:23:29.225Z,28.23
2017-05-19T09:24:29.261Z,28.63
2017-05-19T09:25:29.303Z,28.61
2017-05-19T09:26:29.347Z,27.72
2017-05-19T09:27:29.367Z,28.13
2017-05-19T09:28:29.409Z,27.54
2017-05-19T09:30:29.488Z,27.86
2017-05-19T09:31:29.512Z,26.68
2017-05-19T09:32:44.170Z,27.76
2017-05-19T09:33:29.289Z,26.68
2017-05-19T09:34:29.328Z,27.37
2017-05-19T09:35:29.666Z,27.36
2017-05-19T09:36:29.709Z,26.47
2017-05-19T09:37:29.434Z,27.75
2017-05-19T09:38:29.472Z,28.03
2017-05-19T09:39:29.510Z,28.59
2017-05-19T09:40:29.845Z,28.4
2017-05-19T09:41:29.878Z,28.69
2017-05-19T09:42:29.615Z,29
2017-05-19T09:43:29.953Z,28.69
2017-05-19T09:45:30.038Z,27.27
2017-05-19T09:46:29.759Z,27.76
2017-05-19T09:47:29.802Z,27.26
2017-05-19T09:48:44.750Z,26.88
2017-05-19T09:49:29.861Z,27.45
2017-05-19T09:50:29.899Z,29.23
2017-05-19T09:51:30.250Z,26.98
2017-05-19T09:52:29.980Z,26.59
2017-05-19T09:53:30.315Z,26.4
2017-05-19T09:54:30.350Z,27.67
2017-05-19T09:55:30.082Z,27.86
2017-05-19T09:56:30.114Z,27.08
2017-05-19T09:57:30.466Z,26.89
2017-05-19T09:58:30.197Z,26.71
2017-05-19T09:59:30.541Z,26.89
2017-05-19T10:00:30.577Z,27.58
2017-05-19T10:01:30.600Z,27.96
2017-05-19T10:02:30.337Z,27.37
2017-05-19T10:03:30.378Z,27.48
2017-05-19T10:04:45.328Z,26.89
2017-05-19T10:05:30.741Z,26.79
2017-05-19T10:06:30.473Z,27.36
2017-05-19T10:07:30.824Z,26.57
2017-05-19T10:08:30.850Z,26.78
2017-05-19T10:09:30.893Z,25.9
2017-05-19T10:10:30.931Z,26.1
2017-05-19T10:11:30.653Z,26.09
2017-05-19T10:12:31.003Z,27.45
2017-05-19T10:13:31.037Z,25.79
2017-05-19T10:14:30.762Z,25.42
2017-05-19T10:15:31.102Z,25.52
2017-05-19T10:16:30.831Z,25.33
2017-05-19T10:17:30.874Z,25.33
2017-05-19T10:18:31.219Z,24.24
2017-05-19T10:19:45.865Z,25.52
2017-05-19T10:20:30.996Z,26.48
2017-05-19T10:21:31.021Z,25.21
2017-05-19T10:22:31.048Z,25.49
2017-05-19T10:23:31.389Z,27.26
2017-05-19T10:24:31.420Z,27.06
2017-05-19T10:25:31.465Z,25.98
2017-05-19T10:26:31.503Z,26.08
2017-05-19T10:27:31.538Z,26.39
2017-05-19T10:28:31.567Z,26.85
2017-05-19T10:29:31.600Z,27.33
2017-05-19T10:31:31.677Z,28.27
2017-05-19T10:32:31.703Z,28.55
2017-05-19T10:33:31.745Z,29.52
2017-05-19T10:34:31.784Z,31.07
2017-05-19T10:35:31.823Z,30.87
2017-05-19T10:36:31.849Z,30.37
2017-05-19T10:37:31.894Z,30.37
2017-05-19T10:38:31.918Z,30.55
2017-05-19T10:40:31.996Z,30.82
2017-05-19T10:41:32.033Z,31.13
2017-05-19T10:42:32.069Z,31.6
2017-05-19T10:43:32.095Z,31.71
2017-05-19T10:44:32.130Z,31.91
2017-05-19T10:45:32.174Z,32.99
2017-05-19T10:46:32.204Z,31.62
2017-05-19T10:48:32.267Z,31.73
2017-05-19T10:49:32.314Z,31.04
2017-05-19T10:50:32.344Z,31.63
2017-05-19T10:51:46.993Z,31.04
2017-05-19T10:52:32.101Z,30.87
2017-05-19T10:53:32.455Z,31.47
2017-05-19T10:54:32.484Z,30.58
2017-05-19T10:55:32.515Z,30.77
2017-05-19T10:56:32.546Z,31.34
2017-05-19T10:57:32.590Z,31.34
2017-05-19T10:58:32.618Z,31.24
2017-05-19T10:59:32.653Z,30.85
2017-05-19T11:00:32.685Z,31.63
2017-05-19T11:01:32.724Z,31.74
2017-05-19T11:03:32.785Z,30.68
2017-05-19T11:04:32.827Z,30.1
2017-05-19T11:05:32.549Z,30.47
2017-05-19T11:06:32.583Z,30.36
2017-05-19T11:07:47.540Z,30.44
2017-05-19T11:09:32.694Z,30.16
2017-05-19T11:10:32.727Z,30.85
2017-05-19T11:11:33.062Z,30.16
2017-05-19T11:12:32.788Z,30.65
2017-05-19T11:13:33.138Z,30.07
2017-05-19T11:14:33.171Z,29.69
2017-05-19T11:15:32.899Z,29.79
2017-05-19T11:16:33.244Z,29.69
2017-05-19T11:17:33.277Z,29.79
2017-05-19T11:18:33.295Z,29.9
2017-05-19T11:21:33.398Z,30.19
2017-05-19T11:22:33.441Z,29.41
2017-05-19T11:23:48.085Z,29.11
2017-05-19T11:24:33.503Z,29.11
2017-05-19T11:25:33.537Z,28.53
2017-05-19T11:26:33.572Z,29.11
2017-05-19T11:27:33.605Z,28.92
2017-05-19T11:28:33.647Z,29.79
2017-05-19T11:29:33.669Z,29.79
2017-05-19T11:30:33.704Z,30.88
2017-05-19T11:31:33.737Z,29.6
2017-05-19T11:32:33.775Z,29.62
2017-05-19T11:33:33.815Z,28.54
2017-05-19T11:34:33.851Z,29.62
2017-05-19T11:35:33.876Z,29.14
2017-05-19T11:36:33.908Z,28.54
2017-05-19T11:37:33.642Z,29.91
2017-05-19T11:38:33.987Z,28.54
2017-05-19T11:39:48.627Z,28.36
2017-05-19T11:40:34.050Z,28.83
2017-05-19T11:41:34.080Z,29.43
2017-05-19T11:42:34.109Z,29.6
2017-05-19T11:43:34.149Z,29.31
2017-05-19T11:44:34.182Z,29.52
2017-05-19T11:45:34.224Z,28.93
2017-05-19T11:46:34.250Z,28.64
2017-05-19T11:47:34.288Z,29.9
2017-05-19T11:48:34.316Z,29.11
2017-05-19T11:49:34.352Z,29.31
2017-05-19T11:50:34.391Z,28.74
2017-05-19T11:51:34.419Z,28.93
2017-05-19T11:52:34.460Z,29.21
2017-05-19T11:53:34.487Z,28.74
2017-05-19T11:54:49.136Z,28.43
2017-05-19T11:55:34.253Z,28.82
2017-05-19T11:56:34.584Z,29.9
2017-05-19T11:57:34.626Z,28.43
2017-05-19T11:58:34.666Z,29.1
2017-05-19T11:59:34.698Z,29.2
2017-05-19T12:00:34.416Z,29.69
2017-05-19T12:01:34.768Z,30.26
2017-05-19T12:02:34.483Z,29.77
2017-05-19T12:03:34.527Z,30.46
2017-05-19T12:04:34.871Z,30.36
2017-05-19T12:05:34.887Z,30.44
2017-05-19T12:06:34.934Z,30.83
2017-05-19T12:07:35.256Z,30.44
2017-05-19T12:08:34.998Z,30.25
2017-05-19T12:09:35.025Z,30.05
2017-05-19T12:10:35.059Z,29.95
2017-05-19T12:11:35.096Z,30.64
2017-05-19T12:12:35.137Z,30.54
2017-05-19T12:13:35.165Z,30.44
2017-05-19T12:14:35.195Z,29.85
2017-05-19T12:15:35.222Z,30.54
2017-05-19T12:16:35.265Z,30.62
2017-05-19T12:17:35.303Z,31.21
2017-05-19T12:18:35.018Z,30.82
2017-05-19T12:19:35.055Z,30.82
2017-05-19T12:20:35.095Z,30.33
2017-05-19T12:21:35.425Z,30.52
2017-05-19T12:22:35.460Z,30.91
2017-05-19T12:23:35.190Z,30.82
2017-05-19T12:24:35.229Z,30.62
2017-05-19T12:25:35.570Z,30.72
2017-05-19T12:26:50.212Z,30.52
2017-05-19T12:27:35.626Z,30.62
2017-05-19T12:28:35.355Z,30.91
2017-05-19T12:29:35.700Z,30.43
2017-05-19T12:31:35.458Z,30.43
2017-05-19T12:32:35.794Z,30.72
2017-05-19T12:33:35.527Z,30.43
2017-05-19T12:34:35.556Z,30.33
2017-05-19T12:35:35.896Z,30.8
2017-05-19T12:36:35.922Z,30.62
2017-05-19T12:38:35.994Z,30.52
2017-05-19T12:39:35.726Z,30.43
2017-05-19T12:40:36.112Z,30.23
2017-05-19T12:41:36.163Z,30.33
2017-05-19T12:42:50.745Z,30.33
2017-05-19T12:43:36.177Z,30.13
2017-05-19T12:44:36.194Z,29.94
2017-05-19T12:45:36.232Z,30.25
2017-05-19T12:47:35.990Z,29.84
2017-05-19T12:48:36.317Z,30.72
2017-05-19T12:49:36.355Z,31.31
2017-05-19T12:50:36.397Z,30.83
2017-05-19T12:51:36.418Z,30.26
2017-05-19T12:52:36.449Z,29.38
2017-05-19T12:53:36.189Z,29.58
2017-05-19T12:55:36.562Z,28.5
2017-05-19T12:56:36.584Z,29.58
2017-05-19T12:57:36.315Z,29.27
2017-05-19T12:58:51.272Z,29.27
2017-05-19T12:59:36.695Z,29.36
2017-05-19T13:00:36.714Z,29.46
2017-05-19T13:01:36.749Z,29.75
2017-05-19T13:02:36.783Z,29.64
2017-05-19T13:03:36.813Z,29.55
2017-05-19T13:04:36.849Z,29.55
2017-05-19T13:05:36.893Z,30.82
2017-05-19T13:06:36.915Z,30.43
2017-05-19T13:07:36.949Z,30.23
2017-05-19T13:08:36.979Z,29.95
2017-05-19T13:09:37.023Z,29.36
2017-05-19T13:10:37.049Z,28.78
2017-05-19T13:12:37.113Z,29.46
2017-05-19T13:13:37.149Z,29.17
2017-05-19T13:14:51.796Z,28.97
2017-05-19T13:16:36.945Z,29.27
2017-05-19T13:17:36.981Z,28.97
2017-05-19T13:18:37.308Z,29.55
2017-05-19T13:19:37.350Z,29.16
2017-05-19T13:20:37.386Z,28.96
2017-05-19T13:21:37.409Z,28.96
2017-05-19T13:22:37.138Z,29.16
2017-05-19T13:23:37.178Z,29.17
2017-05-19T13:24:37.512Z,29.17
2017-05-19T13:25:37.553Z,28.5
2017-05-19T13:26:37.580Z,28.59
2017-05-19T13:27:37.617Z,29.38
2017-05-19T13:28:37.641Z,29.36
2017-05-19T13:29:52.294Z,29.66
2017-05-19T13:30:37.716Z,29.84
2017-05-19T13:31:37.740Z,29.64
2017-05-19T13:33:37.818Z,30.23
2017-05-19T13:34:37.841Z,30.33
2017-05-19T13:35:37.882Z,29.94
2017-05-19T13:36:37.911Z,30.33
2017-05-19T13:37:37.942Z,30.23
2017-05-19T13:38:37.970Z,30.62
2017-05-19T13:39:38.014Z,30.33
2017-05-19T13:40:38.044Z,29.85
2017-05-19T13:41:37.765Z,29.56
2017-05-19T13:42:37.802Z,30.05
2017-05-19T13:43:38.148Z,29.75
2017-05-19T13:44:37.864Z,29.56
2017-05-19T13:45:37.909Z,30.25
2017-05-19T13:46:38.241Z,29.95
2017-05-19T13:47:38.277Z,30.25
2017-05-19T13:48:38.000Z,29.75
2017-05-19T13:49:38.032Z,30.33
2017-05-19T13:50:38.365Z,30.72
2017-05-19T13:51:38.407Z,30.72
2017-05-19T13:52:38.439Z,31.11
2017-05-19T13:53:38.469Z,30.52
2017-05-19T13:54:38.508Z,30.72
2017-05-19T13:55:38.225Z,30.05
2017-05-19T13:56:38.575Z,30.64
2017-05-19T13:57:38.606Z,30.25
2017-05-19T13:58:38.632Z,29.48
2017-05-19T13:59:38.366Z,29.75